createdAt,value
2019-04-01T00:00:45.687Z,63.00
2019-04-01T00:03:30.244Z,63.20
2019-04-01T00:06:14.568Z,63.30
2019-04-01T00:08:59.163Z,63.30
2019-04-01T00:11:53.242Z,63.40
2019-04-01T00:14:46.724Z,63.80
2019-04-01T00:17:31.493Z,63.90
2019-04-01T00:20:16.134Z,63.80
2019-04-01T00:23:01.312Z,63.90
2019-04-01T00:25:55.050Z,63.70
2019-04-01T00:28:39.872Z,64.00
2019-04-01T00:31:24.710Z,64.20
2019-04-01T00:34:09.103Z,64.30
2019-04-01T00:36:54.048Z,64.30
2019-04-01T00:39:38.791Z,63.90
2019-04-01T00:45:42.283Z,63.70
2019-04-01T00:48:37.810Z,63.90
2019-04-01T00:51:22.379Z,63.90
2019-04-01T00:54:07.679Z,64.20
2019-04-01T00:57:01.689Z,64.20
2019-04-01T00:59:45.794Z,64.10
2019-04-01T01:02:30.178Z,64.20
2019-04-01T01:05:23.342Z,64.10
2019-04-01T01:08:08.047Z,64.30
2019-04-01T01:10:52.767Z,64.30
2019-04-01T01:13:37.548Z,64.30
2019-04-01T01:16:22.608Z,64.50
2019-04-01T01:19:07.534Z,64.60
2019-04-01T01:21:52.157Z,64.80
2019-04-01T01:24:36.921Z,65.00
2019-04-01T01:27:21.604Z,65.40
2019-04-01T01:30:06.211Z,66.50
2019-04-01T01:32:50.815Z,65.60
2019-04-01T01:35:44.278Z,65.60
2019-04-01T01:38:29.819Z,65.40
2019-04-01T01:41:14.867Z,65.60
2019-04-01T01:43:59.038Z,65.40
2019-04-01T01:46:52.675Z,65.40
2019-04-01T01:49:37.401Z,65.10
2019-04-01T01:52:22.126Z,65.20
2019-04-01T01:55:06.231Z,65.20
2019-04-01T01:57:59.691Z,65.40
2019-04-01T02:00:44.711Z,65.90
2019-04-01T02:03:39.881Z,66.90
2019-04-01T02:06:24.259Z,66.30
2019-04-01T02:09:08.618Z,66.30
2019-04-01T02:12:01.827Z,66.40
2019-04-01T02:14:47.047Z,67.00
2019-04-01T02:17:31.476Z,66.30
2019-04-01T02:20:16.464Z,66.10
2019-04-01T02:23:01.007Z,66.20
2019-04-01T02:25:45.475Z,66.30
2019-04-01T02:28:38.690Z,66.50
2019-04-01T02:31:23.679Z,66.50
2019-04-01T02:34:08.274Z,66.50
2019-04-01T02:36:53.288Z,66.80
2019-04-01T02:39:38.315Z,67.30
2019-04-01T02:42:32.347Z,67.60
2019-04-01T02:45:16.736Z,67.50
2019-04-01T02:48:01.492Z,67.50
2019-04-01T02:50:46.203Z,67.80
2019-04-01T02:53:31.289Z,68.10
2019-04-01T02:56:15.843Z,68.10
2019-04-01T02:59:00.477Z,68.00
2019-04-01T03:01:45.476Z,67.90
2019-04-01T03:04:30.517Z,68.20
2019-04-01T03:07:14.993Z,68.10
2019-04-01T03:09:59.492Z,68.10
2019-04-01T03:12:44.211Z,68.00
2019-04-01T03:15:28.895Z,67.60
2019-04-01T03:18:22.367Z,68.60
2019-04-01T03:21:06.859Z,68.90
2019-04-01T03:23:51.510Z,69.10
2019-04-01T03:26:36.057Z,69.00
2019-04-01T03:29:20.475Z,70.40
2019-04-01T03:32:14.024Z,70.90
2019-04-01T03:34:58.744Z,70.60
2019-04-01T03:37:43.426Z,70.30
2019-04-01T03:40:28.117Z,70.70
2019-04-01T03:43:12.587Z,71.40
2019-04-01T03:45:58.613Z,71.80
2019-04-01T03:48:52.527Z,72.10
2019-04-01T03:51:46.489Z,72.90
2019-04-01T03:54:30.721Z,73.20
2019-04-01T03:57:15.438Z,74.30
2019-04-01T04:00:00.827Z,73.90
2019-04-01T04:02:45.380Z,74.00
2019-04-01T04:05:29.688Z,74.10
2019-04-01T04:08:14.973Z,74.80
2019-04-01T04:10:59.584Z,76.10
2019-04-01T04:13:44.059Z,75.90
2019-04-01T04:16:28.707Z,76.40
2019-04-01T04:19:21.984Z,76.50
2019-04-01T04:22:06.662Z,76.70
2019-04-01T04:24:52.160Z,77.30
2019-04-01T04:27:45.441Z,77.60
2019-04-01T04:30:30.084Z,77.50
2019-04-01T04:33:14.637Z,77.30
2019-04-01T04:36:07.895Z,77.80
2019-04-01T04:38:52.627Z,78.10
2019-04-01T04:41:37.321Z,77.60
2019-04-01T04:44:21.979Z,77.30
2019-04-01T04:47:06.764Z,77.30
2019-04-01T04:49:51.082Z,77.40
2019-04-01T04:52:44.703Z,77.40
2019-04-01T04:55:38.607Z,77.40
2019-04-01T04:58:23.563Z,78.00
2019-04-01T05:01:08.464Z,77.90
2019-04-01T05:03:53.108Z,76.90
2019-04-01T05:06:37.501Z,76.70
2019-04-01T05:09:22.252Z,76.40
2019-04-01T05:12:07.144Z,76.80
2019-04-01T05:14:51.951Z,77.30
2019-04-01T05:17:36.568Z,77.30
2019-04-01T05:20:20.966Z,77.70
2019-04-01T05:23:14.815Z,77.90
2019-04-01T05:26:09.002Z,78.10
2019-04-01T05:29:02.819Z,78.20
2019-04-01T05:31:47.768Z,78.40
2019-04-01T05:34:31.900Z,78.80
2019-04-01T05:37:16.531Z,78.90
2019-04-01T05:40:01.190Z,79.20
2019-04-01T05:42:45.453Z,79.30
2019-04-01T05:45:30.876Z,79.50
2019-04-01T05:48:16.674Z,79.50
2019-04-01T05:51:11.147Z,79.60
2019-04-01T05:53:58.215Z,79.50
2019-04-01T05:56:44.363Z,79.50
2019-04-01T05:59:28.590Z,79.80
2019-04-01T06:02:12.907Z,80.00
2019-04-01T06:05:06.440Z,79.80
2019-04-01T06:07:51.231Z,79.60
2019-04-01T06:10:35.584Z,79.30
2019-04-01T06:13:20.758Z,79.20
2019-04-01T06:16:05.799Z,79.50
2019-04-01T06:18:59.523Z,79.60
2019-04-01T06:21:44.479Z,79.90
2019-04-01T06:24:29.140Z,80.40
2019-04-01T06:27:13.974Z,79.70
2019-04-01T06:29:59.376Z,78.50
2019-04-01T06:32:52.916Z,78.40
2019-04-01T06:35:37.459Z,77.90
2019-04-01T06:38:22.053Z,77.10
2019-04-01T06:41:06.824Z,76.30
2019-04-01T06:43:51.110Z,76.10
2019-04-01T06:46:44.498Z,75.60
2019-04-01T06:49:29.389Z,75.10
2019-04-01T06:52:13.899Z,73.20
2019-04-01T06:54:58.296Z,72.80
2019-04-01T06:57:51.522Z,72.50
2019-04-01T07:00:36.243Z,72.40
2019-04-01T07:03:20.924Z,72.20
2019-04-01T07:06:05.399Z,71.80
2019-04-01T07:08:50.099Z,71.50
2019-04-01T07:11:34.767Z,71.40
2019-04-01T07:14:19.467Z,71.40
2019-04-01T07:17:12.945Z,70.80
2019-04-01T07:19:57.353Z,70.50
2019-04-01T07:22:42.109Z,70.20
2019-04-01T07:25:26.546Z,69.80
2019-04-01T07:28:19.852Z,69.80
2019-04-01T07:31:04.651Z,69.20
2019-04-01T07:33:49.192Z,69.00
2019-04-01T07:36:33.786Z,68.80
2019-04-01T07:39:28.279Z,68.70
2019-04-01T07:42:12.932Z,68.60
2019-04-01T07:44:57.440Z,68.50
2019-04-01T07:47:41.951Z,68.30
2019-04-01T07:50:35.231Z,68.00
2019-04-01T07:53:20.028Z,67.60
2019-04-01T07:56:04.925Z,67.20
2019-04-01T07:58:49.855Z,67.20
2019-04-01T08:01:34.646Z,67.10
2019-04-01T08:04:19.207Z,67.10
2019-04-01T08:07:03.922Z,66.80
2019-04-01T08:09:48.567Z,66.80
2019-04-01T08:12:33.676Z,67.10
2019-04-01T08:15:21.217Z,67.10
2019-04-01T08:18:04.808Z,66.80
2019-04-01T08:20:49.451Z,66.60
2019-04-01T08:23:34.362Z,66.90
2019-04-01T08:26:18.823Z,66.50
2019-04-01T08:29:03.625Z,66.10
2019-04-01T08:31:48.227Z,65.70
2019-04-01T08:34:32.807Z,65.70
2019-04-01T08:37:26.405Z,65.20
2019-04-01T08:40:11.280Z,65.40
2019-04-01T08:42:55.930Z,65.10
2019-04-01T08:45:40.931Z,64.60
2019-04-01T08:48:25.715Z,64.30
2019-04-01T08:51:10.278Z,64.00
2019-04-01T08:53:54.643Z,63.50
2019-04-01T08:56:38.980Z,63.80
2019-04-01T08:59:31.987Z,64.10
2019-04-01T09:02:18.399Z,64.20
2019-04-01T09:05:03.677Z,63.30
2019-04-01T09:07:47.993Z,62.50
2019-04-01T09:10:32.937Z,62.20
2019-04-01T09:13:17.673Z,62.00
2019-04-01T09:16:02.788Z,61.50
2019-04-01T09:18:47.175Z,60.80
2019-04-01T09:21:41.734Z,60.00
2019-04-01T09:24:26.539Z,59.60
2019-04-01T09:27:11.095Z,59.10
2019-04-01T09:29:56.003Z,58.70
2019-04-01T09:32:40.599Z,58.40
2019-04-01T09:35:25.531Z,58.10
2019-04-01T09:38:10.328Z,57.70
2019-04-01T09:40:55.032Z,57.20
2019-04-01T09:43:39.879Z,56.70
2019-04-01T09:46:24.668Z,56.30
2019-04-01T09:49:09.275Z,56.00
2019-04-01T09:51:53.769Z,55.40
2019-04-01T09:54:46.933Z,54.90
2019-04-01T09:57:31.390Z,54.40
2019-04-01T10:00:24.738Z,54.00
2019-04-01T10:03:10.147Z,53.30
2019-04-01T10:06:03.631Z,53.00
2019-04-01T10:08:48.627Z,52.60
2019-04-01T10:11:33.571Z,52.40
2019-04-01T10:14:17.803Z,52.40
2019-04-01T10:17:02.236Z,52.10
2019-04-01T10:19:46.759Z,51.80
2019-04-01T10:22:40.194Z,51.50
2019-04-01T10:25:25.108Z,51.40
2019-04-01T10:28:09.234Z,50.80
2019-04-01T10:30:53.887Z,50.70
2019-04-01T10:33:46.923Z,50.40
2019-04-01T10:36:31.732Z,50.00
2019-04-01T10:39:16.819Z,49.30
2019-04-01T10:42:01.839Z,48.70
2019-04-01T10:44:46.031Z,48.30
2019-04-01T10:47:30.925Z,48.30
2019-04-01T10:50:15.611Z,47.90
2019-04-01T10:53:00.397Z,47.70
2019-04-01T10:55:45.292Z,47.10
2019-04-01T10:58:30.397Z,46.50
2019-04-01T11:01:14.864Z,46.10
2019-04-01T11:03:59.565Z,45.60
2019-04-01T11:06:44.426Z,44.70
2019-04-01T11:09:38.099Z,44.40
2019-04-01T11:12:15.535Z,44.70
2019-04-01T11:15:00.473Z,43.80
2019-04-01T11:17:45.136Z,43.70
2019-04-01T11:20:29.903Z,43.70
2019-04-01T11:23:14.441Z,43.40
2019-04-01T11:26:07.433Z,43.30
2019-04-01T11:28:52.584Z,42.50
2019-04-01T11:31:37.025Z,41.70
2019-04-01T11:34:31.714Z,41.30
2019-04-01T11:37:16.154Z,41.20
2019-04-01T11:40:00.820Z,41.30
2019-04-01T11:42:45.622Z,41.00
2019-04-01T11:45:30.639Z,40.70
2019-04-01T11:48:15.385Z,40.50
2019-04-01T11:51:00.008Z,40.00
2019-04-01T11:53:44.888Z,40.00
2019-04-01T11:56:29.724Z,39.60
2019-04-01T11:59:14.965Z,38.80
2019-04-01T12:01:59.620Z,38.40
2019-04-01T12:04:43.991Z,37.80
2019-04-01T12:07:28.632Z,38.10
2019-04-01T12:10:13.023Z,38.30
2019-04-01T12:13:06.591Z,38.20
2019-04-01T12:15:51.431Z,37.80
2019-04-01T12:18:35.924Z,37.20
2019-04-01T12:21:20.495Z,37.40
2019-04-01T12:24:05.255Z,37.60
2019-04-01T12:26:49.483Z,37.50
2019-04-01T12:29:37.740Z,37.30
2019-04-01T12:32:30.866Z,36.80
2019-04-01T12:35:16.026Z,36.70
2019-04-01T12:38:00.612Z,37.10
2019-04-01T12:40:45.156Z,37.10
2019-04-01T12:43:29.847Z,36.40
2019-04-01T12:46:14.359Z,36.50
2019-04-01T12:49:07.771Z,36.70
2019-04-01T12:51:52.429Z,36.40
2019-04-01T12:54:37.122Z,36.50
2019-04-01T12:57:22.186Z,36.30
2019-04-01T13:00:09.005Z,35.90
2019-04-01T13:03:03.375Z,35.10
2019-04-01T13:05:48.035Z,35.10
2019-04-01T13:08:32.495Z,35.90
2019-04-01T13:11:17.539Z,36.60
2019-04-01T13:14:02.171Z,36.10
2019-04-01T13:16:46.339Z,35.70
2019-04-01T13:19:39.927Z,35.80
2019-04-01T13:22:24.581Z,36.10
2019-04-01T13:25:09.519Z,36.00
2019-04-01T13:27:54.283Z,36.30
2019-04-01T13:30:38.951Z,36.80
2019-04-01T13:33:23.455Z,36.90
2019-04-01T13:36:08.776Z,36.50
2019-04-01T13:38:53.143Z,36.10
2019-04-01T13:41:42.606Z,35.80
2019-04-01T13:44:36.170Z,35.30
2019-04-01T13:47:10.827Z,34.60
2019-04-01T13:49:55.507Z,34.20
2019-04-01T13:52:40.383Z,33.70
2019-04-01T13:55:25.551Z,33.30
2019-04-01T13:58:10.901Z,34.10
2019-04-01T14:00:57.408Z,35.20
2019-04-01T14:03:50.650Z,35.70
2019-04-01T14:06:35.502Z,35.70
2019-04-01T14:09:20.850Z,35.70
2019-04-01T14:12:14.409Z,35.70
2019-04-01T14:14:58.904Z,35.60
2019-04-01T14:17:43.280Z,36.10
2019-04-01T14:20:36.599Z,36.40
2019-04-01T14:23:23.429Z,36.80
2019-04-01T14:26:07.061Z,37.00
2019-04-01T14:29:00.230Z,36.60
2019-04-01T14:31:44.880Z,35.90
2019-04-01T14:34:29.651Z,35.70
2019-04-01T14:37:14.140Z,35.70
2019-04-01T14:40:08.547Z,35.60
2019-04-01T14:42:52.963Z,35.20
2019-04-01T14:45:46.527Z,35.20
2019-04-01T14:48:30.994Z,35.40
2019-04-01T14:51:15.586Z,35.60
2019-04-01T14:54:00.227Z,36.00
2019-04-01T14:56:44.759Z,36.50
2019-04-01T14:59:37.995Z,36.80
2019-04-01T15:02:23.052Z,37.30
2019-04-01T15:05:07.798Z,37.90
2019-04-01T15:07:52.431Z,38.30
2019-04-01T15:10:39.377Z,38.60
2019-04-01T15:13:23.256Z,38.60
2019-04-01T15:16:07.989Z,38.80
2019-04-01T15:18:52.599Z,38.30
2019-04-01T15:21:47.502Z,38.00
2019-04-01T15:24:33.587Z,38.00
2019-04-01T15:27:18.359Z,38.00
2019-04-01T15:30:02.511Z,38.30
2019-04-01T15:32:56.110Z,38.80
2019-04-01T15:35:41.166Z,38.70
2019-04-01T15:38:25.683Z,38.70
2019-04-01T15:41:10.222Z,38.90
2019-04-01T15:43:54.923Z,38.70
2019-04-01T15:46:39.495Z,39.00
2019-04-01T15:49:24.378Z,38.90
2019-04-01T15:52:08.719Z,38.80
2019-04-01T15:55:02.556Z,38.90
2019-04-01T15:57:57.114Z,38.90
2019-04-01T16:00:50.503Z,38.90
2019-04-01T16:03:44.607Z,39.20
2019-04-01T16:06:29.104Z,39.30
2019-04-01T16:09:13.637Z,39.20
2019-04-01T16:12:06.966Z,39.50
2019-04-01T16:14:51.627Z,39.70
2019-04-01T16:17:36.187Z,40.10
2019-04-01T16:20:20.462Z,40.30
2019-04-01T16:23:13.935Z,40.60
2019-04-01T16:25:58.369Z,41.00
2019-04-01T16:28:42.883Z,41.40
2019-04-01T16:31:27.683Z,41.60
2019-04-01T16:34:12.226Z,42.10
2019-04-01T16:37:05.542Z,42.10
2019-04-01T16:39:50.490Z,42.10
2019-04-01T16:42:34.897Z,42.60
2019-04-01T16:45:19.548Z,42.50
2019-04-01T16:48:04.387Z,42.60
2019-04-01T16:50:50.487Z,42.80
2019-04-01T16:53:46.139Z,42.80
2019-04-01T16:56:39.306Z,43.00
2019-04-01T16:59:23.756Z,43.30
2019-04-01T17:02:17.833Z,43.40
2019-04-01T17:05:03.467Z,43.50
2019-04-01T17:07:48.366Z,43.70
2019-04-01T17:10:33.237Z,43.80
2019-04-01T17:13:27.210Z,43.50
2019-04-01T17:16:12.284Z,43.70
2019-04-01T17:18:57.801Z,43.70
2019-04-01T17:21:42.083Z,43.80
2019-04-01T17:24:27.973Z,43.90
2019-04-01T17:27:12.191Z,44.10
2019-04-01T17:30:06.122Z,44.30
2019-04-01T17:32:51.918Z,44.40
2019-04-01T17:35:36.396Z,44.40
2019-04-01T17:38:21.364Z,44.70
2019-04-01T17:41:05.862Z,44.60
2019-04-01T17:43:50.251Z,44.70
2019-04-01T17:46:43.864Z,44.90
2019-04-01T17:49:28.534Z,45.00
2019-04-01T17:52:13.362Z,45.00
2019-04-01T17:54:58.551Z,45.00
2019-04-01T17:57:43.123Z,45.20
2019-04-01T18:00:28.351Z,45.40
2019-04-01T18:03:29.974Z,45.80
2019-04-01T18:06:15.240Z,45.90
2019-04-01T18:09:09.235Z,45.60
2019-04-01T18:12:02.692Z,45.50
2019-04-01T18:14:48.004Z,45.80
2019-04-01T18:17:41.684Z,45.70
2019-04-01T18:20:26.714Z,45.70
2019-04-01T18:23:11.164Z,45.70
2019-04-01T18:25:55.638Z,45.70
2019-04-01T18:28:40.325Z,45.60
2019-04-01T18:31:25.776Z,45.80
2019-04-01T18:34:10.463Z,45.90
2019-04-01T18:36:55.201Z,45.90
2019-04-01T18:39:48.011Z,45.90
2019-04-01T18:42:26.903Z,46.20
2019-04-01T18:45:21.405Z,46.40
2019-04-01T18:48:06.644Z,46.50
2019-04-01T18:50:52.841Z,46.90
2019-04-01T18:53:46.127Z,47.30
2019-04-01T18:56:30.801Z,47.70
2019-04-01T18:59:15.422Z,47.70
2019-04-01T19:01:59.767Z,47.80
2019-04-01T19:04:53.628Z,48.00
2019-04-01T19:07:47.937Z,48.00
2019-04-01T19:10:43.178Z,48.00
2019-04-01T19:13:28.165Z,47.90
2019-04-01T19:16:23.104Z,47.80
2019-04-01T19:19:08.183Z,48.60
2019-04-01T19:21:52.976Z,49.60
2019-04-01T19:24:38.441Z,50.00
2019-04-01T19:27:31.734Z,49.90
2019-04-01T19:30:16.176Z,50.10
2019-04-01T19:33:09.732Z,50.20
2019-04-01T19:35:54.631Z,50.50
2019-04-01T19:38:48.515Z,50.80
2019-04-01T19:41:33.159Z,51.20
2019-04-01T19:44:17.979Z,51.50
2019-04-01T19:47:03.032Z,52.20
2019-04-01T19:49:47.573Z,52.50
2019-04-01T19:52:32.108Z,53.00
2019-04-01T19:55:16.675Z,53.90
2019-04-01T19:58:01.168Z,53.50
2019-04-01T20:00:55.043Z,53.60
2019-04-01T20:03:48.731Z,54.00
2019-04-01T20:06:33.720Z,54.10
2019-04-01T20:09:18.481Z,54.30
2019-04-01T20:12:01.700Z,54.60
2019-04-01T20:14:53.584Z,54.90
2019-04-01T20:17:57.119Z,55.10
2019-04-01T20:20:50.462Z,55.70
2019-04-01T20:23:35.268Z,56.00
2019-04-01T20:26:19.901Z,56.40
2019-04-01T20:29:14.971Z,56.60
2019-04-01T20:31:59.697Z,56.70
2019-04-01T20:34:56.464Z,56.60
2019-04-01T20:37:40.027Z,56.90
2019-04-01T20:40:24.763Z,57.30
2019-04-01T20:43:09.675Z,57.60
2019-04-01T20:45:54.528Z,57.70
2019-04-01T20:48:39.117Z,57.90
2019-04-01T20:51:23.700Z,58.00
2019-04-01T20:54:10.906Z,58.10
2019-04-01T20:57:05.639Z,58.30
2019-04-01T20:59:50.127Z,58.30
2019-04-01T21:02:35.151Z,58.40
2019-04-01T21:05:19.687Z,58.70
2019-04-01T21:08:13.367Z,58.90
2019-04-01T21:10:56.687Z,58.80
2019-04-01T21:13:50.112Z,59.00
2019-04-01T21:16:35.083Z,59.10
2019-04-01T21:19:19.683Z,59.10
2019-04-01T21:22:04.410Z,59.40
2019-04-01T21:24:49.315Z,60.30
2019-04-01T21:27:34.264Z,59.80
2019-04-01T21:30:20.147Z,60.30
2019-04-01T21:33:05.351Z,60.70
2019-04-01T21:35:48.357Z,61.00
2019-04-01T21:38:40.223Z,61.80
2019-04-01T21:41:25.467Z,62.30
2019-04-01T21:44:10.065Z,62.40
2019-04-01T21:47:03.722Z,62.30
2019-04-01T21:49:48.556Z,62.60
2019-04-01T21:52:33.151Z,62.90
2019-04-01T21:55:27.495Z,63.30
2019-04-01T21:58:12.183Z,63.50
2019-04-01T22:00:58.190Z,63.60
2019-04-01T22:03:44.267Z,64.20
2019-04-01T22:06:37.720Z,64.50
2019-04-01T22:09:22.612Z,64.60
2019-04-01T22:12:06.915Z,65.00
2019-04-01T22:14:51.679Z,65.30
2019-04-01T22:17:36.234Z,65.80
2019-04-01T22:20:21.027Z,66.00
2019-04-01T22:23:06.267Z,66.30
2019-04-01T22:25:53.572Z,66.50
2019-04-01T22:28:47.163Z,66.70
2019-04-01T22:31:31.823Z,67.00
2019-04-01T22:34:16.275Z,66.90
2019-04-01T22:37:01.183Z,67.30
2019-04-01T22:39:46.086Z,67.60
2019-04-01T22:42:30.432Z,68.00
2019-04-01T22:45:15.440Z,68.10
2019-04-01T22:47:59.698Z,68.30
2019-04-01T22:50:52.759Z,68.40
2019-04-01T22:53:37.383Z,68.70
2019-04-01T22:56:21.804Z,68.90
2019-04-01T22:59:15.145Z,69.10
2019-04-01T23:01:59.841Z,69.40
2019-04-01T23:04:44.498Z,69.50
2019-04-01T23:07:29.364Z,69.50
2019-04-01T23:10:14.174Z,69.60
2019-04-01T23:12:59.051Z,69.60
2019-04-01T23:15:44.224Z,69.60
2019-04-01T23:18:37.750Z,69.90
2019-04-01T23:21:22.543Z,70.40
2019-04-01T23:24:07.575Z,71.10
2019-04-01T23:26:52.058Z,71.00
2019-04-01T23:29:36.957Z,71.30
2019-04-01T23:32:21.340Z,71.10
2019-04-01T23:35:14.614Z,71.10
2019-04-01T23:37:59.659Z,71.10
2019-04-01T23:40:44.103Z,71.20
2019-04-01T23:43:28.654Z,71.40
2019-04-01T23:46:13.134Z,71.40
2019-04-01T23:49:06.310Z,71.30
2019-04-01T23:51:50.963Z,71.50
2019-04-01T23:54:35.946Z,71.70
2019-04-01T23:57:20.494Z,72.00
